MGH727 LTAI-EDDV
Flight info
| Callsign | MGH727 |
|---|---|
| Flight time | 3h 21m |
| Altitude | 32000 |
| Route | EKNUD UQ26 DIGBO UL615 VADEN Y520 UTEKA DCT DONIV DCT PELOV DCT TONDO DCT BEGLA DCT LOKVU DCT LALUK DCT MILGU DCT KOSIX L986 MAG T804 HLZ HLZ1X |
| Aircraft | B739/M-SDE2E3FGHIRWXY/LB1 |
Departure
| Time | 2026-05-04 08:20 |
|---|---|
| Airport | Antalya International Airport (LTAI) |
Arrival
| Time | 2026-05-04 11:42 |
|---|---|
| Airport | Hannover Airport (EDDV) |
| Time | Latitude | Longitude | Altitude | Speed | Heading |
|---|---|---|---|---|---|
| 2026-05-04 07:58 | 36.88984 | 30.79747 | 203 ft | 0 kts | 96° |
| 2026-05-04 08:10 | 36.89029 | 30.79674 | 199 ft | 0 kts | 186° |
| 2026-05-04 08:14 | 36.89027 | 30.79674 | 199 ft | 1 kts | 186° |
| 2026-05-04 08:14 | 36.89002 | 30.79670 | 205 ft | 6 kts | 187° |
| 2026-05-04 08:14 | 36.88951 | 30.79662 | 191 ft | 8 kts | 185° |
| 2026-05-04 08:16 | 36.88806 | 30.80425 | 191 ft | 16 kts | 96° |
| 2026-05-04 08:16 | 36.88788 | 30.80561 | 196 ft | 16 kts | 116° |
| 2026-05-04 08:16 | 36.88687 | 30.80572 | 196 ft | 15 kts | 185° |
| 2026-05-04 08:17 | 36.88585 | 30.80555 | 194 ft | 14 kts | 187° |
| 2026-05-04 08:17 | 36.88487 | 30.80543 | 203 ft | 14 kts | 185° |
| 2026-05-04 08:17 | 36.88395 | 30.80530 | 192 ft | 13 kts | 187° |
| 2026-05-04 08:17 | 36.88305 | 30.80517 | 195 ft | 13 kts | 187° |
| 2026-05-04 08:19 | 36.88178 | 30.80737 | 196 ft | 0 kts | 7° |
| 2026-05-04 08:19 | 36.88195 | 30.80740 | 197 ft | 14 kts | 6° |
| 2026-05-04 08:20 | 36.88527 | 30.80783 | 194 ft | 80 kts | 5° |
| 2026-05-04 08:20 | 36.89281 | 30.80889 | 193 ft | 135 kts | 6° |
| 2026-05-04 08:20 | 36.90322 | 30.81007 | 452 ft | 154 kts | 360° |
| 2026-05-04 08:20 | 36.91407 | 30.81248 | 914 ft | 170 kts | 11° |
| 2026-05-04 08:21 | 36.92522 | 30.81809 | 1441 ft | 174 kts | 18° |
| 2026-05-04 08:21 | 36.93601 | 30.82378 | 2129 ft | 170 kts | 14° |
| 2026-05-04 08:21 | 36.94729 | 30.82910 | 2521 ft | 177 kts | 13° |
| 2026-05-04 08:21 | 36.95883 | 30.83461 | 3085 ft | 177 kts | 14° |
| 2026-05-04 08:22 | 36.97042 | 30.84026 | 3558 ft | 186 kts | 15° |
| 2026-05-04 08:22 | 36.98300 | 30.84633 | 3841 ft | 200 kts | 15° |
| 2026-05-04 08:24 | 37.09058 | 30.88678 | 7531 ft | 249 kts | 351° |
| 2026-05-04 08:24 | 37.10779 | 30.88268 | 8094 ft | 255 kts | 349° |
| 2026-05-04 08:24 | 37.12531 | 30.87805 | 8653 ft | 261 kts | 348° |
| 2026-05-04 08:24 | 37.14321 | 30.87331 | 9241 ft | 267 kts | 349° |
| 2026-05-04 08:25 | 37.16140 | 30.86855 | 9873 ft | 267 kts | 348° |
| 2026-05-04 08:25 | 37.17976 | 30.86381 | 9972 ft | 270 kts | 349° |
| 2026-05-04 08:25 | 37.19792 | 30.85917 | 9977 ft | 265 kts | 349° |
| 2026-05-04 08:25 | 37.21595 | 30.85459 | 10005 ft | 263 kts | 349° |
| 2026-05-04 08:26 | 37.23396 | 30.85004 | 9974 ft | 267 kts | 349° |
| 2026-05-04 08:27 | 37.35983 | 30.81829 | 10017 ft | 264 kts | 349° |
| 2026-05-04 08:28 | 37.37778 | 30.81373 | 9993 ft | 263 kts | 349° |
| 2026-05-04 08:28 | 37.39563 | 30.80920 | 10011 ft | 260 kts | 349° |
| 2026-05-04 08:28 | 37.41329 | 30.80472 | 10007 ft | 258 kts | 349° |
| 2026-05-04 08:28 | 37.43094 | 30.80118 | 10014 ft | 262 kts | 358° |
| 2026-05-04 08:29 | 37.44946 | 30.80201 | 10017 ft | 264 kts | 2° |
| 2026-05-04 08:29 | 37.46763 | 30.80302 | 10016 ft | 265 kts | 1° |
| 2026-05-04 08:29 | 37.48603 | 30.80379 | 10022 ft | 262 kts | 1° |
| 2026-05-04 08:31 | 37.62999 | 30.81032 | 11374 ft | 341 kts | 1° |
| 2026-05-04 08:33 | 37.80046 | 30.81763 | 15248 ft | 360 kts | 359° |
| 2026-05-04 08:33 | 37.82563 | 30.81722 | 15764 ft | 362 kts | 358° |
| 2026-05-04 08:35 | 38.00667 | 30.81254 | 19061 ft | 380 kts | 358° |
| 2026-05-04 08:35 | 38.03314 | 30.81199 | 19509 ft | 381 kts | 358° |
| 2026-05-04 08:35 | 38.05970 | 30.81144 | 19950 ft | 383 kts | 358° |
| 2026-05-04 08:35 | 38.08645 | 30.81089 | 20397 ft | 385 kts | 358° |
| 2026-05-04 08:37 | 38.24834 | 30.79109 | 22818 ft | 397 kts | 351° |
| 2026-05-04 08:37 | 38.27576 | 30.78620 | 23193 ft | 399 kts | 352° |
| 2026-05-04 08:37 | 38.30368 | 30.78138 | 23551 ft | 401 kts | 352° |
| 2026-05-04 08:38 | 38.33106 | 30.77675 | 23867 ft | 403 kts | 352° |
| 2026-05-04 08:38 | 38.35892 | 30.77210 | 24171 ft | 405 kts | 353° |
| 2026-05-04 08:38 | 38.38695 | 30.76746 | 24480 ft | 407 kts | 353° |
| 2026-05-04 08:40 | 38.58659 | 30.73435 | 26518 ft | 419 kts | 353° |
| 2026-05-04 08:40 | 38.61562 | 30.72952 | 26784 ft | 421 kts | 353° |
| 2026-05-04 08:40 | 38.64474 | 30.72467 | 27062 ft | 423 kts | 354° |
| 2026-05-04 08:41 | 38.67391 | 30.71980 | 27420 ft | 422 kts | 354° |
| 2026-05-04 08:41 | 38.70299 | 30.71494 | 27856 ft | 420 kts | 354° |
| 2026-05-04 08:41 | 38.73189 | 30.71011 | 28272 ft | 418 kts | 354° |
| 2026-05-04 08:41 | 38.76077 | 30.70528 | 28631 ft | 418 kts | 354° |
| 2026-05-04 08:42 | 38.78957 | 30.70046 | 29009 ft | 417 kts | 355° |
| 2026-05-04 08:42 | 38.81832 | 30.69565 | 29410 ft | 416 kts | 355° |
| 2026-05-04 08:42 | 38.84637 | 30.68876 | 29784 ft | 417 kts | 347° |
| 2026-05-04 08:42 | 38.87391 | 30.67667 | 30070 ft | 421 kts | 339° |
| 2026-05-04 08:43 | 38.90024 | 30.65989 | 30323 ft | 423 kts | 336° |
| 2026-05-04 08:43 | 38.92641 | 30.64257 | 30555 ft | 423 kts | 336° |
| 2026-05-04 08:43 | 38.95259 | 30.62521 | 30788 ft | 424 kts | 336° |
| 2026-05-04 08:43 | 38.97881 | 30.60788 | 31044 ft | 423 kts | 336° |
| 2026-05-04 08:44 | 39.00506 | 30.59062 | 31266 ft | 424 kts | 336° |
| 2026-05-04 08:44 | 39.03138 | 30.57339 | 31481 ft | 424 kts | 336° |
| 2026-05-04 08:46 | 39.20705 | 30.45844 | 31939 ft | 423 kts | 336° |
| 2026-05-04 08:46 | 39.25938 | 30.42408 | 31947 ft | 421 kts | 336° |
| 2026-05-04 08:47 | 39.31158 | 30.38975 | 31933 ft | 420 kts | 336° |
| 2026-05-04 08:47 | 39.36373 | 30.35540 | 31954 ft | 421 kts | 336° |
| 2026-05-04 08:48 | 39.41594 | 30.32095 | 31960 ft | 422 kts | 336° |
| 2026-05-04 08:48 | 39.46802 | 30.28653 | 31953 ft | 423 kts | 337° |
| 2026-05-04 08:49 | 39.52108 | 30.25316 | 31970 ft | 424 kts | 340° |
| 2026-05-04 08:50 | 39.71338 | 30.15168 | 31972 ft | 428 kts | 341° |
| 2026-05-04 08:51 | 39.76809 | 30.12235 | 31976 ft | 427 kts | 341° |
| 2026-05-04 08:51 | 39.82307 | 30.09282 | 31979 ft | 427 kts | 341° |
| 2026-05-04 08:52 | 39.87808 | 30.06323 | 31994 ft | 427 kts | 341° |
| 2026-05-04 08:52 | 39.93306 | 30.03363 | 31985 ft | 428 kts | 341° |
| 2026-05-04 08:54 | 40.15350 | 29.91424 | 31990 ft | 430 kts | 341° |
| 2026-05-04 08:55 | 40.20884 | 29.88412 | 32005 ft | 431 kts | 342° |
| 2026-05-04 08:55 | 40.26380 | 29.85416 | 31999 ft | 431 kts | 342° |
| 2026-05-04 09:01 | 40.82378 | 29.46487 | 32028 ft | 446 kts | 327° |
| 2026-05-04 09:01 | 40.87240 | 29.41350 | 32016 ft | 447 kts | 327° |
| 2026-05-04 09:02 | 40.92086 | 29.36225 | 32075 ft | 451 kts | 327° |
| 2026-05-04 09:02 | 40.94540 | 29.33628 | 32243 ft | 453 kts | 326° |
| 2026-05-04 09:02 | 40.96996 | 29.31022 | 32519 ft | 451 kts | 326° |
| 2026-05-04 09:02 | 40.99438 | 29.28428 | 32794 ft | 450 kts | 326° |
| 2026-05-04 09:03 | 41.01880 | 29.25831 | 33011 ft | 451 kts | 326° |
| 2026-05-04 09:03 | 41.04327 | 29.23229 | 33142 ft | 452 kts | 326° |
| 2026-05-04 09:03 | 41.06784 | 29.20614 | 33251 ft | 454 kts | 326° |
| 2026-05-04 09:03 | 41.09249 | 29.17987 | 33446 ft | 454 kts | 326° |
| 2026-05-04 09:04 | 41.11680 | 29.15317 | 33705 ft | 455 kts | 321° |
| 2026-05-04 09:04 | 41.13850 | 29.12227 | 33898 ft | 460 kts | 311° |
| 2026-05-04 09:04 | 41.15656 | 29.08769 | 34015 ft | 462 kts | 308° |
| 2026-05-04 09:05 | 41.19172 | 29.01574 | 34031 ft | 466 kts | 307° |
| 2026-05-04 09:05 | 41.22723 | 28.94326 | 34032 ft | 469 kts | 307° |
| 2026-05-04 09:06 | 41.26328 | 28.87060 | 34057 ft | 472 kts | 308° |
| 2026-05-04 09:08 | 41.40867 | 28.57746 | 34038 ft | 474 kts | 307° |
| 2026-05-04 09:08 | 41.44478 | 28.50419 | 34040 ft | 473 kts | 307° |
| 2026-05-04 09:09 | 41.48055 | 28.43144 | 34034 ft | 472 kts | 307° |
| 2026-05-04 09:09 | 41.51651 | 28.35815 | 34035 ft | 472 kts | 307° |
| 2026-05-04 09:10 | 41.55244 | 28.28480 | 34033 ft | 472 kts | 307° |
| 2026-05-04 09:10 | 41.58833 | 28.21134 | 34020 ft | 473 kts | 307° |
| 2026-05-04 09:11 | 41.62427 | 28.13759 | 34048 ft | 473 kts | 307° |
| 2026-05-04 09:11 | 41.66019 | 28.06370 | 34041 ft | 475 kts | 307° |
| 2026-05-04 09:12 | 41.69604 | 27.98978 | 34032 ft | 477 kts | 306° |
| 2026-05-04 09:14 | 41.84035 | 27.69031 | 34024 ft | 479 kts | 306° |
| 2026-05-04 09:14 | 41.87632 | 27.61521 | 34030 ft | 478 kts | 306° |
| 2026-05-04 09:15 | 41.91217 | 27.54018 | 34043 ft | 477 kts | 306° |
| 2026-05-04 09:15 | 41.94795 | 27.46509 | 34013 ft | 477 kts | 305° |
| 2026-05-04 09:17 | 42.10020 | 27.12384 | 34050 ft | 474 kts | 296° |
| 2026-05-04 09:18 | 42.12789 | 27.04337 | 34061 ft | 473 kts | 297° |
| 2026-05-04 09:18 | 42.15631 | 26.96344 | 34070 ft | 473 kts | 297° |
| 2026-05-04 09:19 | 42.18495 | 26.88363 | 34058 ft | 473 kts | 297° |
| 2026-05-04 09:19 | 42.21363 | 26.80378 | 34072 ft | 473 kts | 297° |
| 2026-05-04 09:20 | 42.24222 | 26.72386 | 34079 ft | 473 kts | 297° |
| 2026-05-04 09:20 | 42.27056 | 26.64436 | 34084 ft | 473 kts | 296° |
| 2026-05-04 09:21 | 42.29908 | 26.56412 | 34098 ft | 474 kts | 296° |
| 2026-05-04 09:21 | 42.32755 | 26.48377 | 34096 ft | 474 kts | 296° |
| 2026-05-04 09:22 | 42.35599 | 26.40325 | 34105 ft | 474 kts | 296° |
| 2026-05-04 09:22 | 42.38438 | 26.32267 | 34107 ft | 474 kts | 296° |
| 2026-05-04 09:23 | 42.41271 | 26.24201 | 34088 ft | 474 kts | 295° |
| 2026-05-04 09:23 | 42.44096 | 26.16135 | 34092 ft | 474 kts | 295° |
| 2026-05-04 09:25 | 42.55269 | 25.83985 | 34096 ft | 471 kts | 295° |
| 2026-05-04 09:26 | 42.58040 | 25.75940 | 34093 ft | 470 kts | 295° |
| 2026-05-04 09:26 | 42.60801 | 25.67903 | 34091 ft | 469 kts | 295° |
| 2026-05-04 09:27 | 42.63551 | 25.59874 | 34111 ft | 469 kts | 295° |
| 2026-05-04 09:27 | 42.66294 | 25.51845 | 34104 ft | 468 kts | 295° |
| 2026-05-04 09:28 | 42.69029 | 25.43812 | 34092 ft | 468 kts | 295° |
| 2026-05-04 09:28 | 42.71763 | 25.35759 | 34110 ft | 469 kts | 295° |
| 2026-05-04 09:29 | 42.74476 | 25.27748 | 34120 ft | 470 kts | 295° |
| 2026-05-04 09:29 | 42.77211 | 25.19644 | 34096 ft | 472 kts | 295° |
| 2026-05-04 09:30 | 42.79946 | 25.11518 | 34095 ft | 472 kts | 295° |
| 2026-05-04 09:30 | 42.82679 | 25.03371 | 34115 ft | 473 kts | 295° |
| 2026-05-04 09:31 | 42.85410 | 24.95209 | 34130 ft | 472 kts | 295° |
| 2026-05-04 09:31 | 42.88130 | 24.87053 | 34125 ft | 471 kts | 295° |
| 2026-05-04 09:32 | 42.90831 | 24.78931 | 34121 ft | 469 kts | 295° |
| 2026-05-04 09:34 | 43.01431 | 24.46812 | 34134 ft | 460 kts | 295° |
| 2026-05-04 09:34 | 43.04038 | 24.38852 | 34139 ft | 458 kts | 295° |
| 2026-05-04 09:35 | 43.06198 | 24.32243 | 34140 ft | 457 kts | 295° |
| 2026-05-04 09:35 | 43.08787 | 24.24298 | 34155 ft | 457 kts | 296° |
| 2026-05-04 09:37 | 43.22046 | 23.94781 | 34152 ft | 455 kts | 305° |
| 2026-05-04 09:38 | 43.25382 | 23.87456 | 34150 ft | 455 kts | 305° |
| 2026-05-04 09:38 | 43.28737 | 23.80083 | 34161 ft | 455 kts | 305° |
| 2026-05-04 09:39 | 43.32090 | 23.72701 | 34151 ft | 455 kts | 304° |
| 2026-05-04 09:39 | 43.35434 | 23.65316 | 34157 ft | 454 kts | 306° |
| 2026-05-04 09:40 | 43.38764 | 23.57944 | 34151 ft | 453 kts | 306° |
| 2026-05-04 09:40 | 43.42080 | 23.50583 | 34150 ft | 452 kts | 306° |
| 2026-05-04 09:42 | 43.55159 | 23.21369 | 34158 ft | 446 kts | 306° |
| 2026-05-04 09:43 | 43.58397 | 23.14080 | 34145 ft | 445 kts | 306° |
| 2026-05-04 09:43 | 43.61623 | 23.06802 | 34146 ft | 444 kts | 306° |
| 2026-05-04 09:44 | 43.64837 | 22.99531 | 34153 ft | 443 kts | 306° |
| 2026-05-04 09:46 | 43.77560 | 22.70572 | 34150 ft | 438 kts | 306° |
| 2026-05-04 09:46 | 43.80707 | 22.63365 | 34150 ft | 436 kts | 306° |
| 2026-05-04 09:47 | 43.83839 | 22.56173 | 34137 ft | 434 kts | 306° |
| 2026-05-04 09:49 | 43.95704 | 22.32596 | 34158 ft | 420 kts | 319° |
| 2026-05-04 09:49 | 43.97758 | 22.29711 | 34160 ft | 420 kts | 319° |
| 2026-05-04 09:51 | 44.12117 | 22.09174 | 34168 ft | 427 kts | 318° |
| 2026-05-04 09:51 | 44.16227 | 22.03232 | 34142 ft | 429 kts | 318° |
| 2026-05-04 09:52 | 44.20361 | 21.97242 | 34178 ft | 429 kts | 318° |
| 2026-05-04 09:52 | 44.24497 | 21.91238 | 34174 ft | 429 kts | 318° |
| 2026-05-04 09:53 | 44.28632 | 21.85221 | 34163 ft | 429 kts | 318° |
| 2026-05-04 09:53 | 44.32758 | 21.79205 | 34174 ft | 428 kts | 318° |
| 2026-05-04 09:54 | 44.36874 | 21.73191 | 34173 ft | 427 kts | 317° |
| 2026-05-04 09:54 | 44.40978 | 21.67181 | 34171 ft | 427 kts | 317° |
| 2026-05-04 09:55 | 44.45073 | 21.61173 | 34178 ft | 426 kts | 317° |
| 2026-05-04 09:55 | 44.49132 | 21.55204 | 34179 ft | 425 kts | 317° |
| 2026-05-04 09:56 | 44.53209 | 21.49196 | 34182 ft | 424 kts | 317° |
| 2026-05-04 09:56 | 44.57276 | 21.43188 | 34186 ft | 424 kts | 317° |
| 2026-05-04 09:57 | 44.61338 | 21.37176 | 34174 ft | 425 kts | 317° |
| 2026-05-04 09:57 | 44.65402 | 21.31147 | 34180 ft | 425 kts | 317° |
| 2026-05-04 09:58 | 44.69471 | 21.25096 | 34167 ft | 426 kts | 317° |
| 2026-05-04 09:58 | 44.73510 | 21.19079 | 34175 ft | 425 kts | 317° |
| 2026-05-04 10:00 | 44.89662 | 20.94787 | 34172 ft | 423 kts | 317° |
| 2026-05-04 10:04 | 45.18967 | 20.54376 | 34173 ft | 421 kts | 319° |
| 2026-05-04 10:04 | 45.23203 | 20.48629 | 34171 ft | 422 kts | 319° |
| 2026-05-04 10:05 | 45.27443 | 20.42866 | 34164 ft | 421 kts | 319° |
| 2026-05-04 10:05 | 45.31652 | 20.37133 | 34169 ft | 421 kts | 319° |
| 2026-05-04 10:06 | 45.35885 | 20.31356 | 34165 ft | 421 kts | 319° |
| 2026-05-04 10:06 | 45.40109 | 20.25577 | 34175 ft | 421 kts | 319° |
| 2026-05-04 10:08 | 45.54868 | 20.05287 | 34165 ft | 420 kts | 318° |
| 2026-05-04 10:08 | 45.59069 | 19.99483 | 34158 ft | 420 kts | 318° |
| 2026-05-04 10:09 | 45.63267 | 19.93671 | 34153 ft | 420 kts | 318° |
| 2026-05-04 10:09 | 45.67428 | 19.87896 | 34157 ft | 419 kts | 318° |
| 2026-05-04 10:10 | 45.71620 | 19.82067 | 34151 ft | 420 kts | 318° |
| 2026-05-04 10:10 | 45.75808 | 19.76229 | 34152 ft | 420 kts | 318° |
| 2026-05-04 10:11 | 45.79994 | 19.70382 | 34158 ft | 420 kts | 318° |
| 2026-05-04 10:11 | 45.84183 | 19.64519 | 34156 ft | 421 kts | 318° |
| 2026-05-04 10:12 | 45.88373 | 19.58638 | 34148 ft | 422 kts | 318° |
| 2026-05-04 10:12 | 45.92568 | 19.52740 | 34148 ft | 422 kts | 318° |
| 2026-05-04 10:13 | 45.96736 | 19.46864 | 34146 ft | 423 kts | 318° |
| 2026-05-04 10:13 | 46.00935 | 19.40934 | 34142 ft | 423 kts | 318° |
| 2026-05-04 10:14 | 46.05150 | 19.35013 | 34126 ft | 423 kts | 320° |
| 2026-05-04 10:16 | 46.23203 | 19.13281 | 34139 ft | 423 kts | 322° |
| 2026-05-04 10:16 | 46.27722 | 19.07801 | 34124 ft | 424 kts | 321° |
| 2026-05-04 10:17 | 46.32202 | 19.02352 | 34138 ft | 424 kts | 321° |
| 2026-05-04 10:19 | 46.50261 | 18.80265 | 34129 ft | 424 kts | 320° |
| 2026-05-04 10:19 | 46.54762 | 18.74730 | 34134 ft | 424 kts | 320° |
| 2026-05-04 10:20 | 46.59265 | 18.69179 | 34126 ft | 424 kts | 320° |
| 2026-05-04 10:20 | 46.63762 | 18.63622 | 34126 ft | 423 kts | 320° |
| 2026-05-04 10:21 | 46.68219 | 18.58104 | 34125 ft | 423 kts | 320° |
| 2026-05-04 10:21 | 46.72692 | 18.52553 | 34126 ft | 422 kts | 320° |
| 2026-05-04 10:22 | 46.79387 | 18.44221 | 34124 ft | 421 kts | 320° |
| 2026-05-04 10:23 | 46.83839 | 18.38664 | 34125 ft | 421 kts | 320° |
| 2026-05-04 10:25 | 47.00866 | 18.17299 | 34128 ft | 421 kts | 319° |
| 2026-05-04 10:25 | 47.05309 | 18.11693 | 34124 ft | 422 kts | 319° |
| 2026-05-04 10:26 | 47.09760 | 18.06064 | 34124 ft | 423 kts | 319° |
| 2026-05-04 10:26 | 47.14214 | 18.00418 | 34114 ft | 423 kts | 319° |
| 2026-05-04 10:27 | 47.18648 | 17.94784 | 34105 ft | 424 kts | 319° |
| 2026-05-04 10:27 | 47.23108 | 17.89105 | 34114 ft | 424 kts | 319° |
| 2026-05-04 10:28 | 47.27570 | 17.83409 | 34100 ft | 425 kts | 319° |
| 2026-05-04 10:28 | 47.32035 | 17.77698 | 34101 ft | 425 kts | 319° |
| 2026-05-04 10:29 | 47.36504 | 17.71967 | 34100 ft | 425 kts | 319° |
| 2026-05-04 10:29 | 47.40941 | 17.66265 | 34094 ft | 426 kts | 319° |
| 2026-05-04 10:30 | 47.45404 | 17.60514 | 34105 ft | 425 kts | 319° |
| 2026-05-04 10:30 | 47.49861 | 17.54759 | 34097 ft | 426 kts | 319° |
| 2026-05-04 10:31 | 47.54319 | 17.48988 | 34098 ft | 425 kts | 318° |
| 2026-05-04 10:32 | 47.69850 | 17.28779 | 34066 ft | 425 kts | 318° |
| 2026-05-04 10:33 | 47.74282 | 17.22979 | 34064 ft | 425 kts | 318° |
| 2026-05-04 10:33 | 47.78719 | 17.17162 | 34063 ft | 425 kts | 318° |
| 2026-05-04 10:35 | 47.96755 | 16.95047 | 34056 ft | 424 kts | 320° |
| 2026-05-04 10:36 | 48.01357 | 16.89538 | 34074 ft | 423 kts | 320° |
| 2026-05-04 10:36 | 48.05949 | 16.84008 | 34069 ft | 424 kts | 320° |
| 2026-05-04 10:37 | 48.10542 | 16.78460 | 34058 ft | 424 kts | 320° |
| 2026-05-04 10:37 | 48.15134 | 16.72899 | 34063 ft | 425 kts | 320° |
| 2026-05-04 10:39 | 48.31204 | 16.53341 | 34048 ft | 427 kts | 320° |
| 2026-05-04 10:40 | 48.35814 | 16.47699 | 34042 ft | 427 kts | 320° |
| 2026-05-04 10:40 | 48.40426 | 16.42041 | 34035 ft | 428 kts | 320° |
| 2026-05-04 10:41 | 48.45044 | 16.36363 | 34028 ft | 429 kts | 319° |
| 2026-05-04 10:41 | 48.49666 | 16.30666 | 34030 ft | 430 kts | 319° |
| 2026-05-04 10:42 | 48.54297 | 16.24945 | 34019 ft | 430 kts | 319° |
| 2026-05-04 10:42 | 48.58928 | 16.19209 | 34025 ft | 431 kts | 319° |
| 2026-05-04 10:43 | 48.63560 | 16.13457 | 34019 ft | 431 kts | 319° |
| 2026-05-04 10:45 | 48.82052 | 15.90354 | 34022 ft | 430 kts | 319° |
| 2026-05-04 10:45 | 48.86660 | 15.84562 | 34017 ft | 430 kts | 319° |
| 2026-05-04 10:46 | 48.91550 | 15.79327 | 34031 ft | 431 kts | 326° |
| 2026-05-04 10:46 | 48.96604 | 15.74539 | 34022 ft | 431 kts | 326° |
| 2026-05-04 10:47 | 49.01689 | 15.69709 | 34020 ft | 431 kts | 326° |
| 2026-05-04 10:47 | 49.06753 | 15.64821 | 34022 ft | 431 kts | 325° |
| 2026-05-04 10:49 | 49.26962 | 15.45025 | 34006 ft | 432 kts | 325° |
| 2026-05-04 10:50 | 49.32015 | 15.40044 | 34014 ft | 431 kts | 325° |
| 2026-05-04 10:52 | 49.52150 | 15.20072 | 34002 ft | 431 kts | 324° |
| 2026-05-04 10:52 | 49.57179 | 15.15053 | 34000 ft | 430 kts | 324° |
| 2026-05-04 10:54 | 49.77219 | 14.94928 | 34001 ft | 429 kts | 324° |
| 2026-05-04 10:56 | 49.97138 | 14.74723 | 34009 ft | 427 kts | 323° |
| 2026-05-04 10:57 | 50.02066 | 14.69693 | 34027 ft | 427 kts | 323° |
| 2026-05-04 10:57 | 50.06716 | 14.64935 | 34019 ft | 427 kts | 323° |
| 2026-05-04 10:58 | 50.11668 | 14.59855 | 34022 ft | 426 kts | 323° |
| 2026-05-04 10:58 | 50.16621 | 14.54762 | 34022 ft | 426 kts | 323° |
| 2026-05-04 10:59 | 50.21570 | 14.49660 | 34019 ft | 426 kts | 323° |
| 2026-05-04 10:59 | 50.26513 | 14.44551 | 34023 ft | 426 kts | 323° |
| 2026-05-04 11:00 | 50.31454 | 14.39432 | 34009 ft | 426 kts | 323° |
| 2026-05-04 11:02 | 50.51291 | 14.18745 | 34016 ft | 432 kts | 322° |
| 2026-05-04 11:05 | 50.88834 | 13.78860 | 33995 ft | 433 kts | 321° |
| 2026-05-04 11:06 | 50.93790 | 13.73444 | 33998 ft | 432 kts | 321° |
| 2026-05-04 11:06 | 50.98736 | 13.68030 | 33992 ft | 431 kts | 321° |
| 2026-05-04 11:10 | 51.33146 | 13.30007 | 33993 ft | 430 kts | 320° |
| 2026-05-04 11:12 | 51.52796 | 13.07974 | 33991 ft | 431 kts | 320° |
| 2026-05-04 11:12 | 51.57637 | 13.02292 | 33980 ft | 428 kts | 313° |
| 2026-05-04 11:13 | 51.61689 | 12.95392 | 33977 ft | 424 kts | 307° |
| 2026-05-04 11:13 | 51.65620 | 12.88405 | 33976 ft | 424 kts | 307° |
| 2026-05-04 11:16 | 51.85575 | 12.53274 | 33999 ft | 424 kts | 307° |
| 2026-05-04 11:16 | 51.89129 | 12.45975 | 33637 ft | 402 kts | 294° |
| 2026-05-04 11:17 | 51.90312 | 12.41950 | 33239 ft | 391 kts | 287° |
| 2026-05-04 11:17 | 51.91109 | 12.37805 | 32742 ft | 382 kts | 279° |
| 2026-05-04 11:19 | 51.95176 | 12.09487 | 29586 ft | 358 kts | 279° |
| 2026-05-04 11:19 | 51.95743 | 12.05578 | 29143 ft | 354 kts | 279° |
| 2026-05-04 11:19 | 51.96302 | 12.01715 | 28705 ft | 350 kts | 279° |
| 2026-05-04 11:19 | 51.96853 | 11.97894 | 28287 ft | 346 kts | 279° |
| 2026-05-04 11:20 | 51.97399 | 11.94104 | 27857 ft | 343 kts | 279° |
| 2026-05-04 11:20 | 51.97937 | 11.90355 | 27438 ft | 340 kts | 279° |
| 2026-05-04 11:20 | 51.98470 | 11.86636 | 27020 ft | 337 kts | 279° |
| 2026-05-04 11:20 | 51.98996 | 11.82951 | 26612 ft | 334 kts | 279° |
| 2026-05-04 11:22 | 52.06543 | 11.60552 | 23813 ft | 331 kts | 297° |
| 2026-05-04 11:22 | 52.07739 | 11.57360 | 23402 ft | 330 kts | 297° |
| 2026-05-04 11:23 | 52.08926 | 11.54180 | 22962 ft | 328 kts | 296° |
| 2026-05-04 11:23 | 52.10104 | 11.51018 | 22553 ft | 326 kts | 296° |
| 2026-05-04 11:24 | 52.16571 | 11.33560 | 20429 ft | 311 kts | 296° |
| 2026-05-04 11:25 | 52.17681 | 11.30548 | 20068 ft | 309 kts | 296° |
| 2026-05-04 11:25 | 52.18785 | 11.27551 | 19708 ft | 307 kts | 296° |
| 2026-05-04 11:25 | 52.19879 | 11.24576 | 19355 ft | 305 kts | 296° |
| 2026-05-04 11:26 | 52.22051 | 11.18661 | 18641 ft | 303 kts | 295° |
| 2026-05-04 11:27 | 52.29439 | 10.98436 | 16110 ft | 289 kts | 296° |
| 2026-05-04 11:28 | 52.30463 | 10.95617 | 15771 ft | 288 kts | 296° |
| 2026-05-04 11:28 | 52.31481 | 10.92816 | 15431 ft | 286 kts | 296° |
| 2026-05-04 11:28 | 52.32495 | 10.90018 | 15092 ft | 285 kts | 296° |
| 2026-05-04 11:28 | 52.33504 | 10.87238 | 14752 ft | 284 kts | 296° |
| 2026-05-04 11:29 | 52.34507 | 10.84466 | 14417 ft | 283 kts | 296° |
| 2026-05-04 11:29 | 52.35506 | 10.81704 | 14082 ft | 282 kts | 297° |
| 2026-05-04 11:29 | 52.36492 | 10.78945 | 13735 ft | 280 kts | 295° |
| 2026-05-04 11:29 | 52.37388 | 10.76093 | 13277 ft | 281 kts | 293° |
| 2026-05-04 11:31 | 52.43249 | 10.56304 | 10890 ft | 271 kts | 293° |
| 2026-05-04 11:33 | 52.48763 | 10.37708 | 8956 ft | 250 kts | 293° |
| 2026-05-04 11:33 | 52.49520 | 10.35144 | 8661 ft | 249 kts | 293° |
| 2026-05-04 11:33 | 52.50276 | 10.32580 | 8356 ft | 249 kts | 293° |
| 2026-05-04 11:34 | 52.51034 | 10.30012 | 8057 ft | 251 kts | 294° |
| 2026-05-04 11:34 | 52.51829 | 10.27416 | 7733 ft | 257 kts | 293° |
| 2026-05-04 11:34 | 52.52597 | 10.24747 | 7404 ft | 258 kts | 293° |
| 2026-05-04 11:34 | 52.53364 | 10.22102 | 7108 ft | 256 kts | 293° |
| 2026-05-04 11:35 | 52.54133 | 10.19473 | 6810 ft | 255 kts | 293° |
| 2026-05-04 11:35 | 52.54898 | 10.16865 | 6542 ft | 254 kts | 294° |
| 2026-05-04 11:35 | 52.55658 | 10.14245 | 6220 ft | 254 kts | 290° |
| 2026-05-04 11:35 | 52.55956 | 10.11465 | 5751 ft | 247 kts | 262° |
| 2026-05-04 11:36 | 52.55375 | 10.08845 | 5261 ft | 246 kts | 235° |
| 2026-05-04 11:36 | 52.54143 | 10.06924 | 4802 ft | 247 kts | 211° |
| 2026-05-04 11:36 | 52.52523 | 10.06041 | 4341 ft | 248 kts | 187° |
| 2026-05-04 11:36 | 52.50802 | 10.06298 | 4026 ft | 248 kts | 173° |
| 2026-05-04 11:37 | 52.49122 | 10.06358 | 3795 ft | 235 kts | 189° |
| 2026-05-04 11:37 | 52.47516 | 10.06090 | 3479 ft | 231 kts | 187° |
| 2026-05-04 11:37 | 52.45926 | 10.05724 | 3100 ft | 230 kts | 204° |
| 2026-05-04 11:37 | 52.44768 | 10.04042 | 3026 ft | 229 kts | 245° |
| 2026-05-04 11:38 | 52.44522 | 10.01517 | 2989 ft | 224 kts | 276° |
| 2026-05-04 11:38 | 52.44680 | 9.99060 | 2981 ft | 210 kts | 272° |
| 2026-05-04 11:38 | 52.44737 | 9.96739 | 2951 ft | 198 kts | 271° |
| 2026-05-04 11:38 | 52.44787 | 9.94498 | 2917 ft | 198 kts | 271° |
| 2026-05-04 11:39 | 52.44881 | 9.92238 | 2694 ft | 201 kts | 274° |
| 2026-05-04 11:39 | 52.44866 | 9.89996 | 2442 ft | 198 kts | 264° |
| 2026-05-04 11:40 | 52.45264 | 9.77231 | 994 ft | 176 kts | 269° |
| 2026-05-04 11:41 | 52.45241 | 9.75290 | 689 ft | 165 kts | 273° |
| 2026-05-04 11:41 | 52.45342 | 9.73525 | 470 ft | 150 kts | 274° |
| 2026-05-04 11:41 | 52.45380 | 9.71857 | 283 ft | 147 kts | 274° |
| 2026-05-04 11:41 | 52.45428 | 9.70209 | 180 ft | 134 kts | 273° |
| 2026-05-04 11:42 | 52.45461 | 9.69039 | 182 ft | 71 kts | 272° |
| 2026-05-04 11:42 | 52.45471 | 9.68611 | 181 ft | 19 kts | 273° |
| 2026-05-04 11:42 | 52.45478 | 9.68405 | 181 ft | 18 kts | 273° |
| 2026-05-04 11:42 | 52.45511 | 9.68254 | 180 ft | 13 kts | 349° |
| 2026-05-04 11:43 | 52.45587 | 9.68258 | 178 ft | 5 kts | 2° |
| 2026-05-04 11:43 | 52.45618 | 9.68267 | 178 ft | 5 kts | 23° |
| 2026-05-04 11:43 | 52.45642 | 9.68306 | 178 ft | 6 kts | 78° |
| 2026-05-04 11:43 | 52.45643 | 9.68390 | 178 ft | 10 kts | 89° |
| 2026-05-04 11:44 | 52.45640 | 9.68501 | 178 ft | 10 kts | 93° |
| 2026-05-04 11:44 | 52.45637 | 9.68609 | 178 ft | 9 kts | 93° |
| 2026-05-04 11:44 | 52.45633 | 9.68714 | 178 ft | 9 kts | 93° |
| 2026-05-04 11:44 | 52.45630 | 9.68829 | 178 ft | 11 kts | 93° |
| 2026-05-04 11:45 | 52.45625 | 9.68962 | 178 ft | 12 kts | 93° |
| 2026-05-04 11:45 | 52.45622 | 9.69093 | 178 ft | 11 kts | 92° |
| 2026-05-04 11:45 | 52.45619 | 9.69223 | 178 ft | 12 kts | 92° |
| 2026-05-04 11:45 | 52.45616 | 9.69364 | 178 ft | 13 kts | 92° |
| 2026-05-04 11:46 | 52.45610 | 9.69518 | 178 ft | 14 kts | 93° |
| 2026-05-04 11:46 | 52.45607 | 9.69679 | 178 ft | 14 kts | 92° |
| 2026-05-04 11:46 | 52.45622 | 9.69814 | 178 ft | 12 kts | 32° |
| 2026-05-04 11:46 | 52.45663 | 9.69830 | 177 ft | 2 kts | 5° |
| 2026-05-04 11:47 | 52.45667 | 9.69836 | 177 ft | 0 kts | 48° |
| 2026-05-04 11:47 | 52.45668 | 9.69863 | 178 ft | 4 kts | 86° |
| 2026-05-04 11:47 | 52.45681 | 9.69902 | 177 ft | 4 kts | 38° |
| 2026-05-04 11:47 | 52.45706 | 9.69932 | 177 ft | 5 kts | 31° |
| 2026-05-04 11:48 | 52.45733 | 9.69958 | 178 ft | 4 kts | 32° |
| 2026-05-04 11:48 | 52.45734 | 9.69960 | 178 ft | 0 kts | 32° |
| 2026-05-04 11:48 | 52.45736 | 9.69962 | 178 ft | 0 kts | 31° |